createdAt,value
2023-05-16T00:01:09.351Z,81.18
2023-05-16T00:03:39.415Z,80.80
2023-05-16T00:06:06.461Z,81.19
2023-05-16T00:08:33.295Z,81.33
2023-05-16T00:11:00.325Z,81.49
2023-05-16T00:13:29.664Z,81.58
2023-05-16T00:15:56.904Z,81.92
2023-05-16T00:18:23.756Z,82.07
2023-05-16T00:20:51.933Z,82.11
2023-05-16T00:23:18.986Z,82.24
2023-05-16T00:25:47.165Z,82.27
2023-05-16T00:28:14.770Z,82.67
2023-05-16T00:30:41.712Z,82.87
2023-05-16T00:33:08.827Z,82.96
2023-05-16T00:35:35.878Z,82.54
2023-05-16T00:38:03.512Z,82.91
2023-05-16T00:40:30.504Z,82.71
2023-05-16T00:42:57.325Z,82.89
2023-05-16T00:45:24.323Z,83.61
2023-05-16T00:47:52.010Z,83.38
2023-05-16T00:50:19.573Z,83.22
2023-05-16T00:52:46.517Z,83.58
2023-05-16T00:55:13.974Z,83.98
2023-05-16T00:57:41.362Z,83.89
2023-05-16T01:00:10.654Z,84.12
2023-05-16T01:02:38.518Z,84.24
2023-05-16T01:05:05.801Z,84.55
2023-05-16T01:07:32.640Z,84.68
2023-05-16T01:09:59.965Z,85.15
2023-05-16T01:12:49.312Z,84.97
2023-05-16T01:15:47.537Z,85.69
2023-05-16T01:18:43.598Z,85.57
2023-05-16T01:21:21.517Z,85.68
2023-05-16T01:24:35.488Z,85.87
2023-05-16T01:27:04.995Z,86.05
2023-05-16T01:29:32.405Z,85.82
2023-05-16T01:31:59.464Z,85.96
2023-05-16T01:34:26.923Z,85.30
2023-05-16T01:37:25.628Z,85.61
2023-05-16T01:40:07.621Z,85.29
2023-05-16T01:42:41.155Z,84.54
2023-05-16T01:45:23.000Z,84.78
2023-05-16T01:48:02.004Z,85.03
2023-05-16T01:50:34.618Z,85.11
2023-05-16T01:53:11.473Z,84.92
2023-05-16T01:55:46.652Z,84.61
2023-05-16T01:58:16.047Z,84.82
2023-05-16T02:00:43.517Z,85.08
2023-05-16T02:03:11.274Z,85.13
2023-05-16T02:05:38.369Z,85.28
2023-05-16T02:08:05.786Z,85.39
2023-05-16T02:10:32.945Z,85.56
2023-05-16T02:12:59.865Z,85.86
2023-05-16T02:15:27.090Z,85.72
2023-05-16T02:17:54.693Z,86.28
2023-05-16T02:20:21.625Z,86.04
2023-05-16T02:22:49.937Z,86.08
2023-05-16T02:25:17.014Z,86.00
2023-05-16T02:27:44.044Z,86.28
2023-05-16T02:30:12.272Z,86.37
2023-05-16T02:32:40.637Z,86.77
2023-05-16T02:35:08.295Z,86.38
2023-05-16T02:37:35.400Z,86.47
2023-05-16T02:40:05.740Z,86.80
2023-05-16T02:42:33.032Z,87.13
2023-05-16T02:45:00.252Z,88.17
2023-05-16T02:47:27.301Z,87.77
2023-05-16T02:49:54.747Z,87.97
2023-05-16T02:52:21.676Z,87.50
2023-05-16T02:54:59.874Z,87.85
2023-05-16T02:57:35.490Z,87.94
2023-05-16T03:00:02.349Z,88.14
2023-05-16T03:02:29.254Z,87.49
2023-05-16T03:04:56.248Z,87.67
2023-05-16T03:07:23.154Z,87.39
2023-05-16T03:09:50.038Z,87.97
2023-05-16T03:12:17.739Z,87.80
2023-05-16T03:14:45.264Z,87.92
2023-05-16T03:17:12.172Z,88.21
2023-05-16T03:19:39.465Z,88.20
2023-05-16T03:22:06.325Z,88.56
2023-05-16T03:24:33.431Z,88.19
2023-05-16T03:27:00.586Z,88.74
2023-05-16T03:29:27.433Z,89.03
2023-05-16T03:31:57.557Z,88.98
2023-05-16T03:34:26.750Z,88.67
2023-05-16T03:36:53.629Z,89.66
2023-05-16T03:39:20.700Z,89.71
2023-05-16T03:41:47.689Z,88.69
2023-05-16T03:44:14.857Z,89.62
2023-05-16T03:46:41.886Z,88.66
2023-05-16T03:49:11.577Z,88.71
2023-05-16T03:51:38.706Z,89.35
2023-05-16T03:54:05.996Z,89.42
2023-05-16T03:56:32.969Z,89.71
2023-05-16T03:58:59.818Z,89.98
2023-05-16T04:01:27.593Z,89.77
2023-05-16T04:03:54.504Z,89.76
2023-05-16T04:06:22.011Z,89.18
2023-05-16T04:08:48.897Z,89.41
2023-05-16T04:11:15.804Z,89.19
2023-05-16T04:13:42.808Z,89.13
2023-05-16T04:16:09.624Z,89.04
2023-05-16T04:18:36.690Z,89.24
2023-05-16T04:21:03.861Z,88.81
2023-05-16T04:23:30.929Z,88.15
2023-05-16T04:25:58.910Z,87.54
2023-05-16T04:28:25.886Z,87.40
2023-05-16T04:30:53.644Z,87.08
2023-05-16T04:33:20.494Z,87.03
2023-05-16T04:35:48.481Z,87.05
2023-05-16T04:38:15.689Z,85.93
2023-05-16T04:40:43.136Z,85.41
2023-05-16T04:43:10.299Z,85.03
2023-05-16T04:45:37.929Z,84.42
2023-05-16T04:48:05.159Z,83.97
2023-05-16T04:50:32.089Z,82.77
2023-05-16T04:52:58.940Z,82.72
2023-05-16T04:55:26.048Z,81.97
2023-05-16T04:57:53.143Z,82.14
2023-05-16T05:00:20.585Z,81.76
2023-05-16T05:02:47.518Z,81.86
2023-05-16T05:05:14.490Z,81.27
2023-05-16T05:07:41.555Z,80.37
2023-05-16T05:10:09.306Z,80.28
2023-05-16T05:12:36.301Z,79.73
2023-05-16T05:15:04.300Z,80.13
2023-05-16T05:17:31.237Z,80.19
2023-05-16T05:19:58.817Z,79.85
2023-05-16T05:22:27.130Z,79.93
2023-05-16T05:24:54.000Z,79.59
2023-05-16T05:27:20.933Z,79.96
2023-05-16T05:29:47.812Z,79.44
2023-05-16T05:32:14.737Z,78.33
2023-05-16T05:34:41.642Z,78.87
2023-05-16T05:37:08.670Z,78.66
2023-05-16T05:39:35.818Z,78.87
2023-05-16T05:42:03.945Z,78.57
2023-05-16T05:44:31.268Z,77.94
2023-05-16T05:46:58.712Z,77.65
2023-05-16T05:49:27.241Z,77.54
2023-05-16T05:51:54.439Z,77.93
2023-05-16T05:54:21.534Z,78.15
2023-05-16T05:56:48.645Z,78.05
2023-05-16T05:59:16.017Z,78.08
2023-05-16T06:01:44.482Z,78.69
2023-05-16T06:04:11.659Z,79.34
2023-05-16T06:06:40.078Z,79.01
2023-05-16T06:09:07.210Z,78.40
2023-05-16T06:11:34.117Z,77.65
2023-05-16T06:14:01.064Z,77.26
2023-05-16T06:16:28.111Z,78.22
2023-05-16T06:18:55.119Z,78.76
2023-05-16T06:21:22.279Z,78.88
2023-05-16T06:23:49.420Z,78.54
2023-05-16T06:26:16.307Z,78.88
2023-05-16T06:28:43.382Z,78.76
2023-05-16T06:31:10.369Z,78.63
2023-05-16T06:33:37.348Z,78.93
2023-05-16T06:36:04.723Z,79.05
2023-05-16T06:38:31.617Z,79.35
2023-05-16T06:40:58.462Z,78.80
2023-05-16T06:43:25.713Z,78.42
2023-05-16T06:45:52.676Z,77.81
2023-05-16T06:48:19.808Z,78.10
2023-05-16T06:50:53.611Z,77.26
2023-05-16T06:53:20.717Z,76.65
2023-05-16T06:55:48.141Z,75.99
2023-05-16T06:58:15.167Z,76.41
2023-05-16T07:00:42.134Z,76.82
2023-05-16T07:03:09.085Z,76.11
2023-05-16T07:05:36.366Z,75.93
2023-05-16T07:08:04.573Z,74.79
2023-05-16T07:10:32.586Z,74.11
2023-05-16T07:13:01.494Z,73.08
2023-05-16T07:15:31.225Z,72.20
2023-05-16T07:17:58.285Z,73.06
2023-05-16T07:20:25.505Z,73.45
2023-05-16T07:22:52.543Z,73.29
2023-05-16T07:25:19.473Z,72.89
2023-05-16T07:27:46.452Z,73.75
2023-05-16T07:30:14.510Z,73.20
2023-05-16T07:32:42.457Z,73.02
2023-05-16T07:35:10.230Z,73.11
2023-05-16T07:37:37.109Z,73.06
2023-05-16T07:40:04.573Z,73.55
2023-05-16T07:42:32.079Z,73.26
2023-05-16T07:44:58.980Z,72.78
2023-05-16T07:47:26.093Z,73.44
2023-05-16T07:49:53.023Z,74.07
2023-05-16T07:52:20.249Z,74.20
2023-05-16T07:54:47.967Z,75.22
2023-05-16T07:57:18.087Z,75.29
2023-05-16T07:59:45.274Z,75.97
2023-05-16T08:02:12.418Z,76.09
2023-05-16T08:04:39.497Z,77.95
2023-05-16T08:07:06.407Z,77.91
2023-05-16T08:09:33.325Z,78.54
2023-05-16T08:12:03.644Z,76.93
2023-05-16T08:14:32.842Z,76.91
2023-05-16T08:17:00.536Z,76.13
2023-05-16T08:19:28.091Z,75.95
2023-05-16T08:21:55.353Z,76.86
2023-05-16T08:24:22.256Z,76.68
2023-05-16T08:26:49.194Z,77.05
2023-05-16T08:29:17.274Z,75.83
2023-05-16T08:31:44.408Z,76.11
2023-05-16T08:34:11.415Z,76.40
2023-05-16T08:36:38.975Z,76.23
2023-05-16T08:39:06.085Z,76.37
2023-05-16T08:41:33.202Z,76.48
2023-05-16T08:44:00.115Z,75.73
2023-05-16T08:46:30.239Z,75.86
2023-05-16T08:49:00.465Z,75.10
2023-05-16T08:51:34.503Z,75.15
2023-05-16T08:54:07.826Z,74.90
2023-05-16T08:56:36.758Z,74.40
2023-05-16T08:59:04.978Z,74.44
2023-05-16T09:01:32.510Z,73.35
2023-05-16T09:04:00.978Z,71.46
2023-05-16T09:06:28.285Z,70.64
2023-05-16T09:08:55.557Z,70.42
2023-05-16T09:11:22.573Z,70.60
2023-05-16T09:13:49.808Z,68.57
2023-05-16T09:16:19.472Z,68.10
2023-05-16T09:18:58.047Z,68.13
2023-05-16T09:21:38.058Z,68.35
2023-05-16T09:24:07.352Z,68.37
2023-05-16T09:26:37.233Z,69.17
2023-05-16T09:29:14.153Z,68.96
2023-05-16T09:31:41.268Z,69.21
2023-05-16T09:34:11.291Z,69.24
2023-05-16T09:36:38.534Z,70.26
2023-05-16T09:39:08.863Z,70.35
2023-05-16T09:41:36.451Z,70.95
2023-05-16T09:44:07.473Z,71.03
2023-05-16T09:46:37.110Z,70.83
2023-05-16T09:49:04.085Z,71.03
2023-05-16T09:51:32.146Z,71.43
2023-05-16T09:54:00.511Z,71.55
2023-05-16T09:56:27.593Z,71.29
2023-05-16T09:58:54.552Z,70.46
2023-05-16T10:01:21.544Z,70.67
2023-05-16T10:03:48.671Z,70.85
2023-05-16T10:06:17.153Z,69.87
2023-05-16T10:08:44.395Z,70.16
2023-05-16T10:11:11.997Z,70.53
2023-05-16T10:13:40.022Z,68.88
2023-05-16T10:16:14.278Z,69.73
2023-05-16T10:18:42.422Z,68.89
2023-05-16T10:21:15.072Z,68.31
2023-05-16T10:23:43.759Z,68.68
2023-05-16T10:26:14.045Z,68.98
2023-05-16T10:28:41.468Z,69.55
2023-05-16T10:31:11.683Z,69.74
2023-05-16T10:33:40.050Z,69.61
2023-05-16T10:36:11.001Z,69.79
2023-05-16T10:38:39.174Z,69.95
2023-05-16T10:41:07.738Z,69.50
2023-05-16T10:43:34.683Z,69.14
2023-05-16T10:46:09.742Z,68.69
2023-05-16T10:48:41.480Z,67.51
2023-05-16T10:51:40.991Z,67.93
2023-05-16T10:54:15.594Z,68.09
2023-05-16T10:56:43.417Z,67.65
2023-05-16T10:59:25.515Z,67.88
2023-05-16T11:01:55.031Z,68.61
2023-05-16T11:04:22.180Z,68.19
2023-05-16T11:06:53.897Z,68.41
2023-05-16T11:09:23.405Z,69.03
2023-05-16T11:11:53.667Z,68.86
2023-05-16T11:14:29.043Z,68.84
2023-05-16T11:17:07.687Z,69.07
2023-05-16T11:19:50.025Z,67.99
2023-05-16T11:22:20.741Z,66.81
2023-05-16T11:25:01.915Z,67.37
2023-05-16T11:27:38.726Z,66.94
2023-05-16T11:30:05.479Z,66.68
2023-05-16T11:32:36.257Z,66.07
2023-05-16T11:35:05.774Z,66.32
2023-05-16T11:37:32.722Z,66.17
2023-05-16T11:40:09.314Z,65.87
2023-05-16T11:42:40.245Z,65.01
2023-05-16T11:45:22.835Z,64.64
2023-05-16T11:47:50.702Z,63.93
2023-05-16T11:50:26.141Z,64.13
2023-05-16T11:52:56.140Z,64.73
2023-05-16T11:55:40.323Z,64.39
2023-05-16T11:58:09.706Z,63.34
2023-05-16T12:00:36.632Z,61.39
2023-05-16T12:03:05.874Z,60.94
2023-05-16T12:05:34.594Z,59.55
2023-05-16T12:08:04.485Z,59.00
2023-05-16T12:10:34.154Z,58.89
2023-05-16T12:13:02.098Z,58.59
2023-05-16T12:15:29.567Z,57.18
2023-05-16T12:17:56.965Z,57.27
2023-05-16T12:20:25.994Z,56.52
2023-05-16T12:22:52.981Z,55.69
2023-05-16T12:25:35.614Z,54.77
2023-05-16T12:28:05.014Z,55.12
2023-05-16T12:30:32.921Z,54.85
2023-05-16T12:33:07.938Z,53.76
2023-05-16T12:35:38.401Z,53.50
2023-05-16T12:38:10.989Z,53.32
2023-05-16T12:40:41.318Z,54.02
2023-05-16T12:43:22.929Z,53.61
2023-05-16T12:45:52.889Z,52.24
2023-05-16T12:48:20.306Z,52.94
2023-05-16T12:50:48.678Z,53.18
2023-05-16T12:53:18.225Z,53.24
2023-05-16T12:55:45.681Z,53.87
2023-05-16T12:58:13.838Z,54.02
2023-05-16T13:00:40.903Z,53.51
2023-05-16T13:03:08.144Z,53.63
2023-05-16T13:05:36.209Z,53.55
2023-05-16T13:08:03.983Z,53.18
2023-05-16T13:10:31.152Z,52.23
2023-05-16T13:13:01.072Z,51.57
2023-05-16T13:15:28.594Z,50.89
2023-05-16T13:17:55.933Z,50.52
2023-05-16T13:20:22.856Z,51.20
2023-05-16T13:22:49.797Z,50.35
2023-05-16T13:25:16.989Z,50.75
2023-05-16T13:27:44.023Z,50.07
2023-05-16T13:30:11.558Z,50.25
2023-05-16T13:32:38.599Z,49.68
2023-05-16T13:35:06.148Z,49.86
2023-05-16T13:37:33.454Z,50.55
2023-05-16T13:40:00.413Z,50.10
2023-05-16T13:42:27.493Z,50.84
2023-05-16T13:44:54.466Z,51.22
2023-05-16T13:47:21.435Z,49.38
2023-05-16T13:49:48.597Z,49.44
2023-05-16T13:52:15.571Z,49.95
2023-05-16T13:54:42.446Z,49.29
2023-05-16T13:57:09.430Z,49.84
2023-05-16T14:02:06.198Z,49.10
2023-05-16T14:04:33.165Z,49.93
2023-05-16T14:07:00.059Z,50.30
2023-05-16T14:09:27.014Z,50.54
2023-05-16T14:11:54.041Z,50.04
2023-05-16T14:14:21.218Z,49.70
2023-05-16T14:16:48.245Z,51.29
2023-05-16T14:19:18.858Z,51.02
2023-05-16T14:21:46.654Z,47.85
2023-05-16T14:24:13.528Z,48.11
2023-05-16T14:26:40.848Z,47.29
2023-05-16T14:29:07.707Z,48.17
2023-05-16T14:31:36.471Z,46.39
2023-05-16T14:34:04.120Z,45.33
2023-05-16T14:36:31.841Z,45.94
2023-05-16T14:38:59.053Z,45.67
2023-05-16T14:41:26.659Z,45.19
2023-05-16T14:43:53.621Z,45.58
2023-05-16T14:46:20.811Z,46.37
2023-05-16T14:48:47.710Z,45.13
2023-05-16T14:51:15.180Z,45.86
2023-05-16T14:53:42.530Z,44.42
2023-05-16T14:56:10.367Z,43.18
2023-05-16T14:58:37.220Z,43.53
2023-05-16T15:01:04.214Z,43.63
2023-05-16T15:03:37.763Z,43.76
2023-05-16T15:06:14.104Z,44.05
2023-05-16T15:08:41.514Z,45.38
2023-05-16T15:11:08.499Z,43.96
2023-05-16T15:13:35.533Z,43.18
2023-05-16T15:16:02.485Z,43.51
2023-05-16T15:18:29.399Z,42.95
2023-05-16T15:20:56.532Z,43.50
2023-05-16T15:23:23.425Z,43.15
2023-05-16T15:25:52.205Z,42.92
2023-05-16T15:28:21.647Z,43.39
2023-05-16T15:30:50.714Z,43.13
2023-05-16T15:33:17.609Z,44.23
2023-05-16T15:35:44.536Z,43.61
2023-05-16T15:38:11.413Z,44.03
2023-05-16T15:40:38.263Z,43.31
2023-05-16T15:43:05.175Z,43.61
2023-05-16T15:45:33.047Z,42.77
2023-05-16T15:48:00.039Z,42.71
2023-05-16T15:50:27.133Z,42.76
2023-05-16T15:52:54.072Z,43.26
2023-05-16T15:55:22.017Z,43.23
2023-05-16T15:57:48.900Z,43.16
2023-05-16T16:00:16.551Z,42.12
2023-05-16T16:02:45.303Z,42.85
2023-05-16T16:05:12.315Z,42.59
2023-05-16T16:07:39.190Z,42.13
2023-05-16T16:10:07.011Z,42.80
2023-05-16T16:12:34.217Z,43.50
2023-05-16T16:15:02.299Z,41.15
2023-05-16T16:17:29.315Z,40.91
2023-05-16T16:19:56.226Z,41.20
2023-05-16T16:22:23.358Z,40.48
2023-05-16T16:24:50.269Z,40.87
2023-05-16T16:27:17.234Z,41.83
2023-05-16T16:29:44.262Z,43.40
2023-05-16T16:32:11.194Z,41.69
2023-05-16T16:34:38.123Z,40.68
2023-05-16T16:37:05.487Z,39.93
2023-05-16T16:39:33.371Z,40.86
2023-05-16T16:42:00.445Z,40.79
2023-05-16T16:44:27.308Z,40.26
2023-05-16T16:46:54.251Z,40.01
2023-05-16T16:49:21.195Z,41.17
2023-05-16T16:51:48.076Z,41.09
2023-05-16T16:54:14.953Z,40.86
2023-05-16T16:56:41.935Z,41.47
2023-05-16T16:59:09.097Z,41.69
2023-05-16T17:01:36.402Z,41.33
2023-05-16T17:04:03.618Z,41.13
2023-05-16T17:06:30.778Z,40.49
2023-05-16T17:09:02.302Z,40.36
2023-05-16T17:11:30.058Z,40.36
2023-05-16T17:13:59.521Z,41.09
2023-05-16T17:16:28.628Z,40.54
2023-05-16T17:18:56.279Z,39.83
2023-05-16T17:21:23.244Z,40.10
2023-05-16T17:23:53.378Z,40.03
2023-05-16T17:26:20.636Z,40.37
2023-05-16T17:28:49.201Z,40.68
2023-05-16T17:31:16.687Z,41.23
2023-05-16T17:33:44.398Z,40.53
2023-05-16T17:36:11.333Z,40.58
2023-05-16T17:38:38.318Z,40.92
2023-05-16T17:41:05.394Z,41.66
2023-05-16T17:43:32.284Z,41.25
2023-05-16T17:45:59.541Z,41.88
2023-05-16T17:48:27.802Z,41.07
2023-05-16T17:50:54.678Z,41.26
2023-05-16T17:53:21.639Z,41.20
2023-05-16T17:55:49.600Z,41.94
2023-05-16T17:58:17.995Z,42.22
2023-05-16T18:00:46.693Z,42.77
2023-05-16T18:03:13.666Z,42.53
2023-05-16T18:05:40.782Z,42.28
2023-05-16T18:08:08.652Z,43.01
2023-05-16T18:10:50.484Z,42.37
2023-05-16T18:13:18.868Z,42.72
2023-05-16T18:15:45.778Z,42.82
2023-05-16T18:18:12.776Z,43.49
2023-05-16T18:20:40.777Z,44.62
2023-05-16T18:23:08.458Z,45.12
2023-05-16T18:25:35.517Z,45.53
2023-05-16T18:28:02.597Z,45.36
2023-05-16T18:30:29.481Z,46.07
2023-05-16T18:32:56.530Z,45.98
2023-05-16T18:35:23.723Z,46.37
2023-05-16T18:37:51.124Z,46.64
2023-05-16T18:40:18.391Z,46.54
2023-05-16T18:42:45.329Z,46.28
2023-05-16T18:45:12.227Z,46.66
2023-05-16T18:47:39.227Z,46.97
2023-05-16T18:50:07.317Z,46.96
2023-05-16T18:52:35.323Z,46.99
2023-05-16T18:55:02.481Z,47.50
2023-05-16T18:57:30.510Z,46.33
2023-05-16T18:59:58.147Z,45.31
2023-05-16T19:02:37.949Z,45.36
2023-05-16T19:05:09.342Z,45.54
2023-05-16T19:07:36.500Z,44.67
2023-05-16T19:10:04.253Z,44.89
2023-05-16T19:12:35.073Z,46.43
2023-05-16T19:15:01.960Z,45.57
2023-05-16T19:17:29.002Z,45.87
2023-05-16T19:19:56.022Z,46.25
2023-05-16T19:22:22.952Z,46.06
2023-05-16T19:24:50.672Z,46.20
2023-05-16T19:27:17.555Z,46.71
2023-05-16T19:29:44.471Z,46.51
2023-05-16T19:32:11.754Z,46.48
2023-05-16T19:34:38.900Z,46.77
2023-05-16T19:37:07.755Z,47.39
2023-05-16T19:39:34.649Z,47.24
2023-05-16T19:42:07.030Z,47.23
2023-05-16T19:44:35.107Z,48.60
2023-05-16T19:47:02.146Z,48.49
2023-05-16T19:49:31.601Z,48.67
2023-05-16T19:51:58.503Z,48.29
2023-05-16T19:54:26.069Z,48.47
2023-05-16T19:56:53.068Z,49.23
2023-05-16T19:59:20.755Z,49.44
2023-05-16T20:01:47.665Z,49.76
2023-05-16T20:04:14.797Z,49.91
2023-05-16T20:06:41.855Z,50.23
2023-05-16T20:09:10.119Z,50.24
2023-05-16T20:11:37.262Z,50.44
2023-05-16T20:14:04.123Z,50.43
2023-05-16T20:16:31.303Z,51.00
2023-05-16T20:18:58.386Z,51.18
2023-05-16T20:21:25.404Z,51.38
2023-05-16T20:23:52.322Z,52.04
2023-05-16T20:26:19.330Z,52.23
2023-05-16T20:28:46.198Z,52.23
2023-05-16T20:31:13.102Z,53.22
2023-05-16T20:33:40.089Z,53.12
2023-05-16T20:36:07.254Z,53.33
2023-05-16T20:38:34.199Z,54.12
2023-05-16T20:41:03.180Z,53.71
2023-05-16T20:43:30.124Z,54.93
2023-05-16T20:45:57.037Z,54.37
2023-05-16T20:48:24.024Z,55.20
2023-05-16T20:50:51.617Z,54.86
2023-05-16T20:53:18.520Z,55.60
2023-05-16T20:55:45.416Z,55.56
2023-05-16T20:58:12.322Z,55.55
2023-05-16T21:00:39.197Z,55.74
2023-05-16T21:03:06.196Z,56.06
2023-05-16T21:05:35.663Z,56.72
2023-05-16T21:08:02.651Z,56.83
2023-05-16T21:10:29.737Z,57.14
2023-05-16T21:12:56.659Z,56.88
2023-05-16T21:15:23.792Z,57.68
2023-05-16T21:17:51.199Z,57.43
2023-05-16T21:20:18.205Z,57.72
2023-05-16T21:22:45.055Z,57.78
2023-05-16T21:25:14.859Z,58.20
2023-05-16T21:27:41.701Z,57.99
2023-05-16T21:30:09.341Z,58.23
2023-05-16T21:32:36.233Z,58.69
2023-05-16T21:35:04.738Z,59.20
2023-05-16T21:37:31.657Z,58.24
2023-05-16T21:39:58.691Z,59.18
2023-05-16T21:42:25.790Z,58.98
2023-05-16T21:44:52.659Z,58.45
2023-05-16T21:47:19.584Z,58.72
2023-05-16T21:49:46.474Z,59.04
2023-05-16T21:52:13.541Z,59.17
2023-05-16T21:54:40.525Z,59.12
2023-05-16T21:57:07.426Z,59.63
2023-05-16T21:59:34.496Z,60.18
2023-05-16T22:02:01.407Z,60.00
2023-05-16T22:04:28.311Z,59.67
2023-05-16T22:06:55.206Z,60.01
2023-05-16T22:09:22.197Z,60.85
2023-05-16T22:11:49.073Z,60.18
2023-05-16T22:14:16.027Z,60.24
2023-05-16T22:16:43.156Z,60.53
2023-05-16T22:19:10.070Z,60.38
2023-05-16T22:21:37.043Z,60.88
2023-05-16T22:24:04.123Z,61.87
2023-05-16T22:26:31.087Z,61.74
2023-05-16T22:28:58.116Z,61.44
2023-05-16T22:31:25.082Z,61.94
2023-05-16T22:33:52.095Z,62.03
2023-05-16T22:36:19.097Z,62.12
2023-05-16T22:38:46.041Z,61.98
2023-05-16T22:41:12.960Z,62.05
2023-05-16T22:43:39.947Z,62.75
2023-05-16T22:46:06.915Z,63.04
2023-05-16T22:48:34.143Z,62.75
2023-05-16T22:51:02.465Z,62.45
2023-05-16T22:53:29.909Z,63.46
2023-05-16T22:55:57.041Z,63.04
2023-05-16T22:58:23.975Z,63.10
2023-05-16T23:00:50.907Z,63.67
2023-05-16T23:03:17.905Z,63.33
2023-05-16T23:05:44.795Z,64.60
2023-05-16T23:08:11.707Z,64.62
2023-05-16T23:10:38.663Z,64.20
2023-05-16T23:13:05.642Z,65.04
2023-05-16T23:15:32.611Z,64.84
2023-05-16T23:17:59.555Z,64.77
2023-05-16T23:20:26.582Z,65.08
2023-05-16T23:22:53.586Z,65.29
2023-05-16T23:25:20.884Z,66.03
2023-05-16T23:27:47.797Z,66.23
2023-05-16T23:30:15.370Z,66.36
2023-05-16T23:32:42.288Z,66.60
2023-05-16T23:35:09.497Z,66.81
2023-05-16T23:37:36.792Z,66.18
2023-05-16T23:40:04.064Z,66.70
2023-05-16T23:42:31.202Z,66.82
2023-05-16T23:44:58.093Z,67.13
2023-05-16T23:47:25.015Z,67.25
2023-05-16T23:49:51.977Z,67.63
2023-05-16T23:52:19.014Z,67.94
2023-05-16T23:54:45.955Z,67.24
2023-05-16T23:57:14.240Z,67.71
2023-05-16T23:59:41.316Z,68.46
